Lakeland, Georgia
Current Conditions -  °F | °C
As of 10:58 AM on Friday 19 Dec 2014 (Local Time) from KVAD Reporting Station
Scattered Clouds Scattered Clouds  
Wind Chill: 57°   Ceiling: Unl
Heat Index: 57°   Visibility: 10mi
Dew Point: 39°   Wind: 5mph
Humidity: 51%   Direction: 40°NE
Pressure: 30.16"   Gusts: NA
Location:  31.04°N, 83.08°W
Report Text: KVAD 191558Z AUTO 04004KT 10SM SCT180 SCT210 14/04 A3016 RMK AO2 SLP216 T01390038 $
Loading
Personal Weather Stations






























Interactive Weather Map New forecast layout! Learn more

10-Day Weather Forecast

Advertisements
Track Severe Weather on mobile